Time;durP1;ratioP1;P1;durP2;ratioP2;P2;SDS_P1;SDS_P2;PMS_P1;PMS_P2;Temp;Humidity;BMP_temperature;BMP_pressure;BME280_temperature;BME280_humidity;BME280_pressure;Samples;Min_cycle;Max_cycle;Signal;HPM_P1;HPM_P2
2022/05/03 00:01:57;;;;;;;9.73;5.50;;;11.10;99.90;;;;;;5035669;28;20502;-81
2022/05/03 00:04:30;;;;;;;6.23;5.13;;;11.00;99.90;;;;;;5035249;28;20445;-81
2022/05/03 00:07:05;;;;;;;7.93;5.47;;;11.00;99.90;;;;;;5035226;28;20850;-81
2022/05/03 00:09:39;;;;;;;8.23;6.03;;;10.90;99.90;;;;;;5034996;28;20450;-81
2022/05/03 00:12:12;;;;;;;7.23;5.63;;;10.90;99.90;;;;;;5035005;28;20457;-81
2022/05/03 00:14:45;;;;;;;7.47;6.30;;;10.80;99.90;;;;;;5039925;28;20524;-80
2022/05/03 00:17:16;;;;;;;9.67;6.03;;;10.70;99.90;;;;;;5046654;28;20594;-81
2022/05/03 00:19:44;;;;;;;9.37;5.20;;;10.70;99.90;;;;;;5047746;28;20459;-80
2022/05/03 00:22:12;;;;;;;7.20;5.43;;;10.60;99.90;;;;;;5035582;28;20452;-81
2022/05/03 00:24:41;;;;;;;7.87;5.60;;;10.60;99.90;;;;;;5034534;28;20450;-80
2022/05/03 00:27:08;;;;;;;7.03;5.80;;;10.60;99.90;;;;;;5034635;28;20480;-80
2022/05/03 00:29:35;;;;;;;18.80;14.33;;;10.50;99.90;;;;;;5034415;28;20446;-80
2022/05/03 00:32:03;;;;;;;30.37;27.20;;;10.40;99.90;;;;;;5034825;28;20457;-81
2022/05/03 00:34:32;;;;;;;38.30;34.10;;;10.30;99.90;;;;;;5035197;28;20467;-81
2022/05/03 00:36:58;;;;;;;53.20;47.80;;;10.30;99.90;;;;;;5034200;28;20477;-81
2022/05/03 00:39:25;;;;;;;56.87;51.00;;;10.20;99.90;;;;;;5034042;28;20445;-80
2022/05/03 00:41:59;;;;;;;58.47;52.07;;;10.20;99.90;;;;;;5033699;28;20725;-81
2022/05/03 00:47:21;;;;;;;41.80;37.07;;;10.10;99.90;;;;;;5043138;28;20490;-80
2022/05/03 00:50:00;;;;;;;29.53;26.37;;;10.10;99.90;;;;;;5044418;28;20452;-82
2022/05/03 00:52:35;;;;;;;24.60;22.00;;;10.00;99.90;;;;;;5046638;28;20459;-81
2022/05/03 00:55:38;;;;;;;16.80;14.23;;;9.90;99.90;;;;;;5047431;28;20455;-81
2022/05/03 00:58:12;;;;;;;13.80;12.20;;;9.90;99.90;;;;;;5048512;28;20459;-80
2022/05/03 01:00:47;;;;;;;12.33;9.40;;;9.90;99.90;;;;;;5055525;28;20491;-80
2022/05/03 01:03:22;;;;;;;10.80;8.40;;;9.80;99.90;;;;;;5069497;28;20481;-81
2022/05/03 01:06:17;;;;;;;10.30;8.00;;;9.80;99.90;;;;;;5054082;28;20523;-81
2022/05/03 01:08:53;;;;;;;8.33;6.93;;;9.80;99.90;;;;;;5049924;28;20475;-81
2022/05/03 01:11:34;;;;;;;7.57;5.90;;;9.90;99.90;;;;;;5046159;28;20470;-81
2022/05/03 01:14:18;;;;;;;8.70;5.90;;;9.80;99.90;;;;;;5045652;28;20517;-81
2022/05/03 01:16:55;;;;;;;10.77;7.97;;;9.70;99.90;;;;;;5048346;28;20468;-82
2022/05/03 01:19:37;;;;;;;8.93;7.97;;;9.70;99.90;;;;;;5049391;28;20809;-81
2022/05/03 01:22:09;;;;;;;9.87;7.50;;;9.70;99.90;;;;;;5050360;28;20458;-80
2022/05/03 01:25:05;;;;;;;8.77;6.67;;;9.70;99.90;;;;;;5051038;28;20549;-80
2022/05/03 01:27:49;;;;;;;8.93;7.53;;;9.70;99.90;;;;;;5046519;28;20445;-80
2022/05/03 01:30:18;;;;;;;8.17;6.60;;;9.70;99.90;;;;;;5040667;28;20458;-81
2022/05/03 01:32:46;;;;;;;10.23;6.50;;;9.60;99.90;;;;;;5042672;28;20455;-82
2022/05/03 01:35:15;;;;;;;9.10;5.60;;;9.50;99.90;;;;;;5042825;28;20484;-82
2022/05/03 01:38:04;;;;;;;8.17;6.03;;;9.40;99.90;;;;;;5043339;28;20451;-81
2022/05/03 01:40:44;;;;;;;9.63;6.23;;;9.40;99.90;;;;;;5041274;28;20452;-81
2022/05/03 01:43:13;;;;;;;8.43;6.10;;;9.30;99.90;;;;;;5051240;28;20494;-79
2022/05/03 01:45:58;;;;;;;8.03;5.60;;;9.20;99.90;;;;;;5048745;28;20463;-81
2022/05/03 01:51:54;;;;;;;10.40;6.37;;;9.20;99.90;;;;;;5041098;28;20495;-82
2022/05/03 01:54:58;;;;;;;9.27;6.10;;;9.10;99.90;;;;;;5020892;28;20459;-80
2022/05/03 01:57:33;;;;;;;7.77;5.60;;;9.10;99.90;;;;;;5028248;28;20467;-80
2022/05/03 02:00:06;;;;;;;8.67;5.83;;;9.00;99.90;;;;;;5041441;28;20452;-80
2022/05/03 02:02:52;;;;;;;6.30;5.70;;;9.00;99.90;;;;;;5039461;28;21001;-80
2022/05/03 02:05:32;;;;;;;7.80;6.00;;;9.00;99.90;;;;;;5040146;28;20990;-80
2022/05/03 02:08:00;;;;;;;8.10;6.37;;;9.00;99.90;;;;;;5040234;28;20990;-81
2022/05/03 02:10:57;;;;;;;9.17;5.70;;;8.90;99.90;;;;;;5038390;28;20487;-81
2022/05/03 02:16:45;;;;;;;8.03;6.17;;;8.90;99.90;;;;;;5039337;28;20518;-81
2022/05/03 02:19:30;;;;;;;8.20;5.70;;;8.80;99.90;;;;;;5038950;28;20461;-80
2022/05/03 02:22:07;;;;;;;10.60;6.80;;;8.70;99.90;;;;;;5022496;28;21267;-81
2022/05/03 02:24:45;;;;;;;7.07;5.73;;;8.70;99.90;;;;;;5041605;28;20482;-81
2022/05/03 02:27:13;;;;;;;8.97;6.80;;;8.60;99.90;;;;;;5041467;28;20470;-82
2022/05/03 02:29:46;;;;;;;9.40;6.77;;;8.50;99.90;;;;;;5041440;28;21112;-82
2022/05/03 02:32:16;;;;;;;8.23;7.40;;;8.50;99.90;;;;;;5040833;28;20457;-81
2022/05/03 02:34:50;;;;;;;8.30;6.17;;;8.50;99.90;;;;;;5022308;28;20462;-81
2022/05/03 02:37:19;;;;;;;7.97;6.17;;;8.50;99.90;;;;;;5023788;28;20523;-81
2022/05/03 02:39:55;;;;;;;7.30;6.10;;;8.30;99.90;;;;;;5045670;28;20508;-81
2022/05/03 02:42:23;;;;;;;8.37;6.80;;;8.40;99.90;;;;;;5050227;28;20969;-80
2022/05/03 02:44:52;;;;;;;8.67;6.60;;;8.30;99.90;;;;;;5057168;28;20498;-80
2022/05/03 02:47:29;;;;;;;8.10;6.23;;;8.40;99.90;;;;;;5036575;28;20520;-81
2022/05/03 02:50:04;;;;;;;7.37;5.63;;;8.30;99.90;;;;;;5036600;28;20499;-81
2022/05/03 02:52:41;;;;;;;8.43;6.60;;;8.30;99.90;;;;;;5025197;28;20445;-82
2022/05/03 02:55:19;;;;;;;6.83;5.90;;;8.30;99.90;;;;;;5044424;28;20459;-82
2022/05/03 02:57:55;;;;;;;9.10;6.77;;;8.20;99.90;;;;;;5042140;28;20453;-82
2022/05/03 03:03:17;;;;;;;8.70;6.77;;;8.20;99.90;;;;;;5054115;28;20482;-81
2022/05/03 03:05:50;;;;;;;8.17;7.13;;;8.20;99.90;;;;;;5033572;28;20518;-80
2022/05/03 03:08:20;;;;;;;9.57;7.13;;;8.10;99.90;;;;;;5034355;28;20451;-81
2022/05/03 03:10:53;;;;;;;12.40;8.07;;;8.10;99.90;;;;;;5051014;28;20464;-80
2022/05/03 03:13:32;;;;;;;9.70;7.37;;;8.00;99.90;;;;;;5038009;28;20450;-80
2022/05/03 03:15:59;;;;;;;8.60;6.40;;;8.00;99.90;;;;;;5038977;28;20492;-77
2022/05/03 03:18:31;;;;;;;10.73;7.50;;;8.00;99.90;;;;;;5039283;28;20450;-78
2022/05/03 03:21:06;;;;;;;10.93;7.50;;;8.00;99.90;;;;;;5038064;28;20517;-82
2022/05/03 03:23:36;;;;;;;10.40;7.70;;;8.00;99.90;;;;;;5053751;28;20887;-83
2022/05/03 03:26:03;;;;;;;13.27;7.67;;;8.00;99.90;;;;;;5054261;28;20573;-83
2022/05/03 03:28:30;;;;;;;9.37;7.40;;;8.00;99.90;;;;;;5054373;28;20453;-84
2022/05/03 03:30:59;;;;;;;11.87;8.17;;;7.90;99.90;;;;;;5048479;28;20460;-82
2022/05/03 03:33:26;;;;;;;9.33;7.60;;;7.80;99.90;;;;;;5040370;28;21092;-80
2022/05/03 03:35:56;;;;;;;8.70;7.17;;;7.80;99.90;;;;;;5038339;28;20502;-82
2022/05/03 03:38:37;;;;;;;9.90;7.33;;;7.80;99.90;;;;;;5037079;28;20842;-81
2022/05/03 03:41:04;;;;;;;9.57;7.40;;;7.80;99.90;;;;;;5037637;28;20439;-80
2022/05/03 03:43:31;;;;;;;9.37;6.27;;;7.80;99.90;;;;;;5037353;28;20489;-81
2022/05/03 03:45:59;;;;;;;9.00;7.30;;;7.80;99.90;;;;;;5036748;28;20473;-80
2022/05/03 03:48:25;;;;;;;11.40;8.07;;;7.80;99.90;;;;;;5034479;28;20457;-79
2022/05/03 03:50:55;;;;;;;11.30;7.53;;;7.80;99.90;;;;;;5034865;28;20843;-79
2022/05/03 03:53:22;;;;;;;11.60;6.87;;;7.70;99.90;;;;;;5034608;28;20445;-81
2022/05/03 03:55:51;;;;;;;8.90;6.97;;;7.70;99.90;;;;;;5035696;28;20831;-82
2022/05/03 03:58:18;;;;;;;8.63;6.50;;;7.70;99.90;;;;;;5050888;28;20450;-80
2022/05/03 04:00:46;;;;;;;9.10;6.93;;;7.70;99.90;;;;;;5044824;28;20458;-81
2022/05/03 04:03:14;;;;;;;9.63;6.67;;;7.70;99.90;;;;;;5031554;28;20991;-81
2022/05/03 04:05:41;;;;;;;10.43;7.20;;;7.70;99.90;;;;;;5033105;28;20561;-78
2022/05/03 04:08:08;;;;;;;8.57;6.37;;;7.70;99.90;;;;;;5032582;28;20483;-81
2022/05/03 04:10:35;;;;;;;99.07;39.93;;;;;;;;;;5033029;28;20460;-79
2022/05/03 04:13:04;;;;;;;59.30;40.13;;;7.70;99.90;;;;;;5033334;28;20958;-80
2022/05/03 04:15:32;;;;;;;23.10;17.50;;;7.70;99.90;;;;;;5033726;28;20484;-81
2022/05/03 04:18:00;;;;;;;23.00;13.53;;;;;;;;;;5033694;28;20458;-82
2022/05/03 04:20:27;;;;;;;13.50;9.90;;;;;;;;;;5042257;28;20453;-80
2022/05/03 04:22:54;;;;;;;51.73;28.90;;;;;;;;;;5045318;28;20448;-81
2022/05/03 04:25:21;;;;;;;115.60;51.60;;;;;;;;;;5049433;28;20469;-80
2022/05/03 04:27:48;;;;;;;30.17;22.33;;;;;;;;;;5043552;28;20453;-79
2022/05/03 04:30:16;;;;;;;70.63;43.93;;;7.70;99.90;;;;;;5046123;28;20456;-80
2022/05/03 04:32:43;;;;;;;45.83;27.90;;;7.80;99.90;;;;;;5051008;28;20476;-81
2022/05/03 04:35:10;;;;;;;17.27;14.30;;;8.50;99.90;;;;;;5054090;28;20453;-82
2022/05/03 04:37:38;;;;;;;15.77;14.27;;;7.60;99.90;;;;;;5054325;28;20453;-80
2022/05/03 04:40:05;;;;;;;16.90;14.57;;;7.80;99.90;;;;;;5054269;28;20449;-81
2022/05/03 04:42:32;;;;;;;37.17;27.40;;;;;;;;;;5051434;28;20420;-82
2022/05/03 04:44:59;;;;;;;26.20;16.13;;;;;;;;;;5050440;28;20484;-82
2022/05/03 04:47:27;;;;;;;12.83;8.57;;;8.00;99.90;;;;;;5048409;28;20455;-82
2022/05/03 04:49:54;;;;;;;16.17;9.83;;;;;;;;;;5046563;28;20458;-83
2022/05/03 04:52:22;;;;;;;10.67;8.97;;;;;;;;;;5045719;28;20465;-83
2022/05/03 04:54:48;;;;;;;11.27;8.30;;;8.90;99.90;;;;;;5044469;28;20451;-82
2022/05/03 04:57:16;;;;;;;9.33;7.03;;;;;;;;;;5044346;28;20506;-82
2022/05/03 04:59:43;;;;;;;17.10;13.43;;;;;;;;;;5043252;28;20510;-81
2022/05/03 05:02:10;;;;;;;14.70;11.67;;;;;;;;;;5055453;28;20466;-82
2022/05/03 05:04:38;;;;;;;50.10;36.73;;;8.20;99.90;;;;;;5038649;28;20485;-83
2022/05/03 05:07:06;;;;;;;70.47;45.27;;;;;;;;;;5052471;28;20460;-83
2022/05/03 05:09:33;;;;;;;98.27;51.30;;;;;;;;;;5061575;28;20455;-81
2022/05/03 05:12:00;;;;;;;168.27;62.50;;;;;;;;;;5052499;28;20540;-84
2022/05/03 05:14:27;;;;;;;163.63;60.67;;;;;;;;;;5053990;28;20447;-83
2022/05/03 05:16:55;;;;;;;61.40;38.33;;;;;;;;;;5063247;28;20436;-83
2022/05/03 05:19:22;;;;;;;57.13;37.53;;;;;;;;;;5039581;28;20451;-83
2022/05/03 05:21:50;;;;;;;14.10;11.53;;;8.70;99.90;;;;;;5038423;28;20451;-82
2022/05/03 05:24:17;;;;;;;10.17;7.17;;;9.00;99.90;;;;;;5035840;28;20492;-83
2022/05/03 05:26:44;;;;;;;19.57;14.27;;;8.70;99.90;;;;;;5033202;28;20539;-83
2022/05/03 05:29:14;;;;;;;16.60;7.50;;;8.90;99.90;;;;;;5037964;28;20541;-81
2022/05/03 05:31:41;;;;;;;8.83;6.67;;;8.80;99.90;;;;;;5046634;28;20456;-80
2022/05/03 05:34:07;;;;;;;11.80;8.90;;;8.90;99.90;;;;;;5045184;28;20457;-83
2022/05/03 05:36:34;;;;;;;11.73;9.43;;;;;;;;;;5042222;28;20505;-82
2022/05/03 05:39:03;;;;;;;16.33;12.37;;;9.10;99.90;;;;;;5042715;28;20455;-82
2022/05/03 05:41:29;;;;;;;7.63;5.57;;;9.20;99.90;;;;;;5038463;28;20447;-84
2022/05/03 05:43:56;;;;;;;9.97;5.80;;;9.20;99.90;;;;;;5037214;28;20578;-81
2022/05/03 05:46:23;;;;;;;10.43;5.97;;;;;;;;;;5037661;28;21203;-82
2022/05/03 05:48:50;;;;;;;10.30;5.43;;;9.20;99.90;;;;;;5039889;28;20811;-82
2022/05/03 05:51:17;;;;;;;9.57;5.43;;;;;;;;;;5044080;28;20466;-81
2022/05/03 05:53:43;;;;;;;6.07;4.83;;;9.70;99.90;;;;;;5043207;28;20490;-81
2022/05/03 05:56:11;;;;;;;9.40;5.50;;;9.10;99.90;;;;;;5051981;28;20476;-81
2022/05/03 05:58:39;;;;;;;10.23;6.17;;;;;;;;;;5061355;28;20462;-81
2022/05/03 06:01:06;;;;;;;12.73;6.07;;;;;;;;;;5058733;28;20426;-81
2022/05/03 06:03:34;;;;;;;8.40;4.97;;;;;;;;;;5069683;28;20533;-81
2022/05/03 06:06:01;;;;;;;24.13;14.60;;;9.50;99.90;;;;;;5054062;23;20603;-80
2022/05/03 06:08:43;;;;;;;9.97;6.53;;;;;;;;;;5010678;28;20479;-81
2022/05/03 06:11:14;;;;;;;7.90;5.50;;;9.90;99.90;;;;;;5012866;28;20444;-81
2022/05/03 06:13:41;;;;;;;7.63;4.47;;;;;;;;;;5010660;28;20551;-80
2022/05/03 06:16:09;;;;;;;8.53;4.80;;;9.90;99.90;;;;;;5020760;28;20463;-81
2022/05/03 06:18:36;;;;;;;15.93;9.63;;;;;;;;;;5013706;28;20492;-80
2022/05/03 06:21:05;;;;;;;12.20;9.33;;;10.60;99.90;;;;;;5011115;28;20453;-82
2022/05/03 06:23:32;;;;;;;30.57;19.10;;;9.90;99.90;;;;;;5026516;28;20504;-81
2022/05/03 06:25:59;;;;;;;6.87;4.60;;;10.60;99.90;;;;;;5023719;28;20500;-81
2022/05/03 06:28:27;;;;;;;6.30;4.20;;;10.30;99.90;;;;;;5013312;28;20460;-79
2022/05/03 06:30:54;;;;;;;6.70;4.40;;;11.30;99.90;;;;;;5014599;28;20453;-81
2022/05/03 06:33:21;;;;;;;5.57;4.13;;;10.40;99.90;;;;;;5008950;28;20827;-81
2022/05/03 06:35:47;;;;;;;8.10;4.37;;;10.00;99.90;;;;;;5028623;28;20468;-81
2022/05/03 06:38:14;;;;;;;6.27;3.93;;;10.20;99.90;;;;;;5033042;28;20455;-81
2022/05/03 06:40:41;;;;;;;5.97;3.87;;;10.90;99.90;;;;;;5018338;28;20452;-83
2022/05/03 06:43:08;;;;;;;5.47;4.20;;;10.70;99.90;;;;;;5033637;28;20456;-80
2022/05/03 06:45:36;;;;;;;8.23;4.77;;;10.50;99.90;;;;;;5028422;28;20584;-81
2022/05/03 06:48:06;;;;;;;15.60;4.53;;;10.60;99.90;;;;;;5031395;28;20531;-82
2022/05/03 06:50:32;;;;;;;7.83;5.17;;;10.60;99.90;;;;;;5022518;28;20454;-81
2022/05/03 06:52:59;;;;;;;9.00;5.40;;;10.70;99.90;;;;;;5011822;28;20468;-81
2022/05/03 06:55:26;;;;;;;5.90;4.30;;;11.10;99.90;;;;;;5025092;28;20474;-81
2022/05/03 06:57:53;;;;;;;4.77;3.10;;;11.10;99.90;;;;;;5022438;28;20454;-82
2022/05/03 07:00:20;;;;;;;4.83;3.53;;;10.80;99.90;;;;;;5033358;28;20479;-80
2022/05/03 07:02:48;;;;;;;7.43;3.90;;;10.60;99.90;;;;;;5032185;28;20451;-80
2022/05/03 07:05:15;;;;;;;5.03;3.30;;;10.90;99.90;;;;;;5007848;28;20498;-80
2022/05/03 07:07:42;;;;;;;10.07;4.80;;;11.00;99.90;;;;;;5015529;28;20552;-80
2022/05/03 07:10:27;;;;;;;6.70;3.80;;;11.10;99.90;;;;;;5028030;28;20458;-81
2022/05/03 07:13:01;;;;;;;5.43;3.40;;;11.20;99.90;;;;;;5025841;28;20480;-81
2022/05/03 07:15:30;;;;;;;14.10;5.10;;;11.60;99.90;;;;;;5032725;28;20472;-79
2022/05/03 07:23:27;;;;;;;4.90;3.97;;;12.10;99.90;;;;;;5017232;28;20444;-82
2022/05/03 07:25:54;;;;;;;8.13;3.80;;;11.90;99.90;;;;;;5009699;28;20497;-80
2022/05/03 07:28:21;;;;;;;6.43;3.27;;;12.20;99.90;;;;;;5015735;28;20453;-81
2022/05/03 07:30:47;;;;;;;5.37;3.97;;;12.00;99.90;;;;;;5022310;28;20996;-81
2022/05/03 07:33:15;;;;;;;6.00;3.80;;;12.10;99.90;;;;;;5024059;28;20453;-80
2022/05/03 07:35:42;;;;;;;4.80;3.27;;;12.20;99.90;;;;;;5031884;28;20561;-83
2022/05/03 07:38:09;;;;;;;7.20;3.60;;;12.30;99.90;;;;;;5017475;28;20483;-83
2022/05/03 07:40:36;;;;;;;8.40;2.60;;;12.50;99.90;;;;;;5022541;28;20477;-80
2022/05/03 07:43:04;;;;;;;5.63;3.40;;;12.60;99.90;;;;;;5032598;28;20450;-82
2022/05/03 07:45:31;;;;;;;3.60;2.40;;;12.70;99.90;;;;;;5029374;28;21059;-82
2022/05/03 07:47:58;;;;;;;4.07;2.80;;;11.80;99.90;;;;;;5010281;28;20452;-80
2022/05/03 07:50:27;;;;;;;3.80;2.37;;;12.90;99.90;;;;;;5007883;28;20454;-82
2022/05/03 07:52:53;;;;;;;5.00;2.10;;;13.50;99.90;;;;;;5010330;28;20942;-81
2022/05/03 07:55:20;;;;;;;3.13;2.10;;;13.70;99.90;;;;;;5020405;28;20471;-80
2022/05/03 07:57:47;;;;;;;6.37;2.93;;;14.00;99.90;;;;;;5032899;28;20470;-79
2022/05/03 08:00:15;;;;;;;3.50;1.90;;;14.30;99.90;;;;;;5024587;28;20504;-79
2022/05/03 08:02:42;;;;;;;4.70;2.30;;;14.10;99.90;;;;;;5026973;28;20445;-80
2022/05/03 08:05:10;;;;;;;3.20;1.80;;;14.70;99.90;;;;;;5010238;28;20501;-82
2022/05/03 08:07:40;;;;;;;3.50;1.50;;;15.00;99.90;;;;;;5005053;28;20568;-82
2022/05/03 08:10:08;;;;;;;3.00;1.60;;;15.80;99.90;;;;;;5016369;28;20453;-80
2022/05/03 08:12:35;;;;;;;5.27;2.00;;;16.80;99.90;;;;;;5021776;28;20464;-79
2022/05/03 08:15:02;;;;;;;2.77;1.50;;;18.20;99.90;;;;;;5007096;28;20523;-81
2022/05/03 08:17:29;;;;;;;3.10;1.50;;;19.60;99.90;;;;;;5009827;28;20464;-79
2022/05/03 08:19:56;;;;;;;3.00;1.77;;;20.30;99.90;;;;;;5028664;28;20454;-79
2022/05/03 08:22:22;;;;;;;3.03;1.60;;;21.10;95.20;;;;;;5021852;28;20852;-81
2022/05/03 08:24:51;;;;;;;3.50;1.63;;;22.10;94.60;;;;;;5013208;28;20486;-82
2022/05/03 08:27:17;;;;;;;3.10;1.57;;;22.90;92.60;;;;;;5013456;28;21074;-82
2022/05/03 08:29:44;;;;;;;4.27;1.63;;;23.10;83.70;;;;;;5011399;28;20453;-80
2022/05/03 08:32:12;;;;;;;2.57;1.57;;;23.30;77.20;;;;;;5026705;28;20441;-82
2022/05/03 08:34:38;;;;;;;3.80;1.40;;;23.60;73.50;;;;;;5023118;28;20488;-81
2022/05/03 08:42:36;;;;;;;3.50;1.80;;;26.30;73.00;;;;;;5016161;28;20529;-82
2022/05/03 08:45:03;;;;;;;4.60;2.57;;;24.90;58.60;;;;;;5015613;28;20482;-81
2022/05/03 08:47:30;;;;;;;3.00;1.77;;;25.10;59.80;;;;;;5015283;28;20465;-82
2022/05/03 08:50:03;;;;;;;2.77;1.37;;;26.10;63.00;;;;;;5016997;28;20485;-82
2022/05/03 08:52:33;;;;;;;2.63;1.83;;;25.90;60.90;;;;;;5008757;28;20639;-82
2022/05/03 08:55:02;;;;;;;3.43;1.60;;;27.60;56.70;;;;;;5015811;28;20474;-82
2022/05/03 08:57:29;;;;;;;2.40;1.30;;;28.00;57.60;;;;;;5017172;28;21020;-82
2022/05/03 08:59:57;;;;;;;2.60;1.67;;;27.90;53.90;;;;;;5017764;28;20456;-82
2022/05/03 09:02:24;;;;;;;3.63;1.50;;;27.20;53.10;;;;;;5016442;28;20484;-82
2022/05/03 09:04:51;;;;;;;2.57;1.60;;;26.60;52.90;;;;;;5017438;28;20477;-82
2022/05/03 09:07:21;;;;;;;2.87;1.50;;;27.30;53.60;;;;;;5017028;28;20454;-83
2022/05/03 09:09:48;;;;;;;5.40;1.80;;;29.10;52.60;;;;;;5016212;28;20548;-82
2022/05/03 09:12:27;;;;;;;2.37;1.53;;;29.20;52.40;;;;;;5012267;28;20480;-81
2022/05/03 09:14:56;;;;;;;2.70;1.70;;;29.60;52.00;;;;;;5017481;28;20465;-81
2022/05/03 09:17:38;;;;;;;3.40;1.93;;;30.10;54.10;;;;;;5006389;28;20457;-82
2022/05/03 09:25:51;;;;;;;3.30;1.90;;;31.10;53.20;;;;;;5021093;28;21111;-82
2022/05/03 09:28:22;;;;;;;2.90;2.00;;;30.90;48.10;;;;;;5021275;28;20468;-82
2022/05/03 09:30:50;;;;;;;2.90;2.17;;;29.70;47.20;;;;;;5020653;28;20450;-82
2022/05/03 09:33:18;;;;;;;3.80;1.50;;;29.30;47.40;;;;;;5020272;28;20445;-82
2022/05/03 09:35:45;;;;;;;2.93;2.07;;;30.40;50.90;;;;;;5021139;28;21000;-82
2022/05/03 09:38:12;;;;;;;3.77;2.47;;;30.70;47.00;;;;;;5021392;28;20472;-83
2022/05/03 09:40:43;;;;;;;2.60;1.40;;;30.70;46.60;;;;;;5020507;28;20456;-81
2022/05/03 09:43:10;;;;;;;3.20;2.10;;;30.80;47.10;;;;;;5021341;28;20499;-82
2022/05/03 09:45:39;;;;;;;5.73;1.80;;;31.40;47.70;;;;;;5020592;28;20544;-80
2022/05/03 09:48:06;;;;;;;2.87;2.00;;;31.60;46.70;;;;;;5019981;28;20456;-82
2022/05/03 09:50:45;;;;;;;2.97;1.67;;;31.40;44.60;;;;;;5020326;28;20468;-80
2022/05/03 09:53:16;;;;;;;3.20;2.30;;;32.10;46.10;;;;;;5020892;28;20462;-81
2022/05/03 09:55:45;;;;;;;3.80;2.10;;;32.10;44.90;;;;;;5020847;28;20831;-82
2022/05/03 09:58:13;;;;;;;4.40;2.87;;;31.10;43.70;;;;;;5020788;28;20505;-81
2022/05/03 10:00:46;;;;;;;2.50;1.80;;;32.10;45.20;;;;;;5020957;28;20847;-81
2022/05/03 10:03:14;;;;;;;3.77;1.73;;;33.10;44.70;;;;;;5021201;28;20977;-82
2022/05/03 10:05:42;;;;;;;9.00;4.03;;;34.10;44.50;;;;;;5012961;28;21066;-82
2022/05/03 10:08:11;;;;;;;4.50;2.17;;;34.30;43.60;;;;;;5007127;28;20449;-82
2022/05/03 10:10:41;;;;;;;2.70;2.20;;;34.20;43.50;;;;;;5020361;28;20453;-82
2022/05/03 10:13:08;;;;;;;4.70;2.60;;;33.20;44.40;;;;;;5020358;28;20450;-80
2022/05/03 10:21:14;;;;;;;3.60;2.30;;;34.10;43.80;;;;;;5019765;28;20437;-82
2022/05/03 10:23:41;;;;;;;2.80;1.87;;;34.10;40.30;;;;;;5005461;28;20460;-81
2022/05/03 10:26:09;;;;;;;3.67;2.43;;;33.30;40.70;;;;;;5016068;28;20572;-81
2022/05/03 10:29:07;;;;;;;3.57;1.83;;;33.10;41.40;;;;;;5015604;28;20839;-80
2022/05/03 10:31:56;;;;;;;3.43;1.90;;;34.40;41.30;;;;;;4954973;28;20452;-80
2022/05/03 10:34:43;;;;;;;4.87;2.40;;;36.00;41.40;;;;;;5012842;28;20490;-81
2022/05/03 10:37:11;;;;;;;6.27;2.47;;;36.40;41.40;;;;;;5018126;28;20450;-81
2022/05/03 10:39:51;;;;;;;4.17;2.30;;;35.80;38.50;;;;;;5018980;28;20528;-83
2022/05/03 10:42:22;;;;;;;3.70;1.90;;;36.40;43.10;;;;;;5018792;28;20449;-82
2022/05/03 10:44:58;;;;;;;5.47;2.20;;;35.80;40.00;;;;;;5020329;28;20887;-80
2022/05/03 10:47:41;;;;;;;3.50;2.43;;;36.00;39.40;;;;;;5018453;28;20500;-81
2022/05/03 10:50:32;;;;;;;5.50;3.43;;;35.90;40.00;;;;;;5017544;28;20849;-80
2022/05/03 10:53:22;;;;;;;3.80;3.40;;;35.20;38.70;;;;;;5017327;28;20461;-81
2022/05/03 10:56:19;;;;;;;2.70;2.20;;;34.80;37.90;;;;;;5017967;28;20469;-80
2022/05/03 10:58:48;;;;;;;6.53;2.60;;;35.60;38.40;;;;;;5010189;28;20560;-80
2022/05/03 11:01:18;;;;;;;2.90;2.20;;;35.60;39.00;;;;;;5017539;28;20836;-80
2022/05/03 11:04:08;;;;;;;3.20;2.07;;;36.90;37.00;;;;;;5016942;28;20544;-80
2022/05/03 11:06:46;;;;;;;3.10;2.47;;;37.00;36.20;;;;;;5015795;28;20485;-81
2022/05/03 11:09:16;;;;;;;3.77;2.57;;;36.90;36.20;;;;;;5016211;28;20470;-80
2022/05/03 11:11:53;;;;;;;3.20;2.20;;;36.60;37.50;;;;;;5016318;28;20449;-80
2022/05/03 11:14:49;;;;;;;4.60;2.80;;;37.90;38.30;;;;;;5016039;28;20449;-81
2022/05/03 11:17:17;;;;;;;3.80;2.60;;;37.50;37.00;;;;;;5016817;28;20450;-79
2022/05/03 11:20:00;;;;;;;3.97;2.30;;;37.40;37.10;;;;;;5016462;28;20477;-79
2022/05/03 11:22:37;;;;;;;3.17;2.37;;;38.20;37.90;;;;;;5019614;28;20464;-80
2022/05/03 11:25:12;;;;;;;6.23;2.67;;;38.10;36.50;;;;;;5014558;28;20475;-81
2022/05/03 11:27:40;;;;;;;4.80;2.73;;;38.50;35.50;;;;;;5019656;28;20863;-80
2022/05/03 11:30:10;;;;;;;3.10;2.40;;;39.50;34.50;;;;;;5019863;28;20500;-80
2022/05/03 11:32:39;;;;;;;3.93;2.23;;;38.00;36.90;;;;;;5020259;28;20446;-81
2022/05/03 11:35:09;;;;;;;10.70;4.20;;;38.90;38.00;;;;;;5019937;28;20473;-80
2022/05/03 11:37:46;;;;;;;3.70;3.30;;;38.80;34.40;;;;;;5020007;28;20449;-81
2022/05/03 11:40:13;;;;;;;5.73;2.80;;;38.80;35.10;;;;;;5018331;28;20442;-81
2022/05/03 11:42:44;;;;;;;3.87;2.30;;;38.20;36.20;;;;;;5017898;28;20521;-81
2022/05/03 11:45:12;;;;;;;2.53;2.07;;;38.80;35.50;;;;;;5019554;28;20510;-81
2022/05/03 11:47:43;;;;;;;3.33;2.80;;;39.30;36.20;;;;;;5019599;28;20485;-80
2022/05/03 11:50:12;;;;;;;2.77;2.47;;;38.50;35.10;;;;;;5019056;28;20472;-81
2022/05/03 11:58:10;;;;;;;3.03;2.60;;;39.00;34.00;;;;;;5018083;28;20437;-80
2022/05/03 12:00:48;;;;;;;5.23;3.20;;;39.20;35.80;;;;;;5017685;28;20453;-81
2022/05/03 12:03:15;;;;;;;5.00;3.17;;;39.90;34.40;;;;;;5020145;28;20458;-80
2022/05/03 12:05:59;;;;;;;3.77;3.43;;;39.60;32.10;;;;;;5042773;23;20489;-83
2022/05/03 12:08:28;;;;;;;4.80;3.70;;;39.90;33.10;;;;;;5030144;28;20468;-84
2022/05/03 12:10:57;;;;;;;3.40;2.80;;;39.40;35.40;;;;;;5028720;28;20476;-84
2022/05/03 12:13:33;;;;;;;6.03;3.57;;;39.40;33.20;;;;;;5028634;28;20450;-84
2022/05/03 12:16:09;;;;;;;3.33;2.93;;;39.20;32.20;;;;;;5029809;28;20492;-84
2022/05/03 12:18:37;;;;;;;3.30;2.97;;;39.40;33.30;;;;;;5024844;28;20433;-84
2022/05/03 12:21:08;;;;;;;3.87;3.40;;;39.10;34.60;;;;;;5017183;28;20833;-81
2022/05/03 12:23:45;;;;;;;3.70;3.23;;;39.90;35.30;;;;;;5021556;28;20460;-83
2022/05/03 12:26:23;;;;;;;4.27;2.57;;;39.80;35.30;;;;;;5023944;28;20509;-83
2022/05/03 12:28:52;;;;;;;3.50;3.20;;;37.60;32.80;;;;;;5022953;28;20461;-84
2022/05/03 12:31:21;;;;;;;3.30;3.00;;;37.60;33.30;;;;;;5023448;28;20449;-83
2022/05/03 12:33:51;;;;;;;3.23;2.70;;;38.30;36.60;;;;;;5028296;28;20455;-83
2022/05/03 12:36:29;;;;;;;4.40;3.10;;;38.90;33.10;;;;;;5026367;28;20569;-83
2022/05/03 12:39:08;;;;;;;2.70;2.33;;;40.20;34.10;;;;;;5029976;28;20536;-83
2022/05/03 12:41:36;;;;;;;4.90;2.93;;;40.30;34.00;;;;;;5034238;28;20515;-83
2022/05/03 12:44:05;;;;;;;4.90;2.80;;;40.80;35.00;;;;;;5029937;28;20450;-83
2022/05/03 12:46:32;;;;;;;4.10;2.67;;;40.30;34.00;;;;;;5020053;28;20506;-83
2022/05/03 12:49:04;;;;;;;4.60;2.80;;;40.30;32.90;;;;;;5029818;28;20525;-83
2022/05/03 12:51:31;;;;;;;3.70;2.23;;;40.30;35.20;;;;;;5028650;28;20525;-84
2022/05/03 12:54:03;;;;;;;4.27;2.70;;;40.20;35.60;;;;;;5026790;28;20489;-83
2022/05/03 12:59:14;;;;;;;4.87;3.43;;;40.30;34.10;;;;;;5029451;28;20533;-84
2022/05/03 13:01:42;;;;;;;3.63;2.60;;;41.00;35.50;;;;;;5029989;28;20480;-85
2022/05/03 13:04:09;;;;;;;5.00;2.70;;;40.30;33.80;;;;;;5028643;28;20442;-85
2022/05/03 13:06:36;;;;;;;3.33;3.03;;;39.80;34.70;;;;;;5025963;28;20496;-83
2022/05/03 13:09:04;;;;;;;3.47;2.53;;;39.60;34.50;;;;;;5025892;28;20460;-82
2022/05/03 13:11:31;;;;;;;3.50;2.80;;;39.40;35.70;;;;;;5025728;28;20450;-84
2022/05/03 13:13:58;;;;;;;6.30;3.30;;;38.80;35.80;;;;;;5026923;28;20489;-83
2022/05/03 13:16:25;;;;;;;3.30;2.77;;;38.60;32.70;;;;;;5028401;28;21039;-84
2022/05/03 13:18:52;;;;;;;3.00;2.60;;;36.20;34.20;;;;;;5026296;28;20544;-84
2022/05/03 13:21:19;;;;;;;5.40;2.80;;;34.70;34.70;;;;;;5026538;28;20460;-83
2022/05/03 13:23:45;;;;;;;3.13;2.50;;;32.70;37.40;;;;;;5026863;28;20530;-83
2022/05/03 13:26:14;;;;;;;3.20;2.40;;;31.90;38.20;;;;;;5024560;28;20579;-83
2022/05/03 13:28:40;;;;;;;3.33;2.70;;;33.00;37.80;;;;;;5023187;28;20453;-84
2022/05/03 13:31:08;;;;;;;3.67;2.50;;;35.10;37.80;;;;;;5024248;28;20465;-84
2022/05/03 13:33:35;;;;;;;3.90;3.10;;;36.30;36.60;;;;;;5023641;28;20972;-83
2022/05/03 13:41:39;;;;;;;4.10;2.70;;;37.40;35.30;;;;;;4976390;28;20434;-84
2022/05/03 13:44:06;;;;;;;4.93;3.00;;;37.80;33.10;;;;;;5024833;28;20430;-84
2022/05/03 13:46:33;;;;;;;4.50;2.40;;;38.00;34.70;;;;;;5023126;28;20525;-82
2022/05/03 13:49:00;;;;;;;3.47;1.90;;;38.10;33.20;;;;;;5021623;28;20540;-83
2022/05/03 13:51:27;;;;;;;3.13;2.50;;;38.70;36.00;;;;;;5022719;28;20544;-82
2022/05/03 13:53:54;;;;;;;3.33;2.97;;;39.60;33.40;;;;;;5020225;28;20481;-85
2022/05/03 13:56:20;;;;;;;3.33;1.93;;;39.00;32.50;;;;;;5020002;28;20915;-84
2022/05/03 13:58:49;;;;;;;10.50;3.37;;;39.70;34.10;;;;;;5028280;28;20438;-85
2022/05/03 14:01:16;;;;;;;4.53;3.20;;;38.80;32.30;;;;;;5028051;28;20445;-85
2022/05/03 14:03:43;;;;;;;3.83;2.93;;;36.60;33.30;;;;;;5026694;28;20450;-85